createdAt,value
2023-01-22T00:01:25.189Z,0.93
2023-01-22T00:03:54.783Z,0.90
2023-01-22T00:06:23.783Z,0.95
2023-01-22T00:08:54.352Z,0.93
2023-01-22T00:11:22.851Z,1.00
2023-01-22T00:13:51.446Z,0.84
2023-01-22T00:16:20.386Z,0.84
2023-01-22T00:18:49.141Z,0.92
2023-01-22T00:21:18.073Z,1.00
2023-01-22T00:23:46.651Z,0.92
2023-01-22T00:26:18.526Z,0.85
2023-01-22T00:28:47.020Z,0.97
2023-01-22T00:31:17.689Z,0.94
2023-01-22T00:33:47.155Z,0.91
2023-01-22T00:36:18.618Z,0.93
2023-01-22T00:38:49.591Z,0.85
2023-01-22T00:41:20.849Z,0.93
2023-01-22T00:43:52.696Z,0.83
2023-01-22T00:46:21.438Z,0.78
2023-01-22T00:48:51.112Z,0.80
2023-01-22T00:51:19.699Z,0.80
2023-01-22T00:53:48.482Z,0.85
2023-01-22T00:56:19.161Z,0.86
2023-01-22T00:58:47.592Z,0.90
2023-01-22T01:01:16.833Z,0.83
2023-01-22T01:03:45.376Z,0.91
2023-01-22T01:06:16.996Z,0.82
2023-01-22T01:08:48.430Z,0.87
2023-01-22T01:11:21.903Z,0.86
2023-01-22T01:13:51.960Z,0.91
2023-01-22T01:16:26.634Z,0.97
2023-01-22T01:18:58.766Z,0.90
2023-01-22T01:21:28.045Z,0.83
2023-01-22T01:23:57.344Z,0.84
2023-01-22T01:26:28.561Z,0.90
2023-01-22T01:28:57.656Z,1.14
2023-01-22T01:31:26.916Z,0.88
2023-01-22T01:33:59.342Z,0.97
2023-01-22T01:36:47.163Z,0.95
2023-01-22T01:39:16.182Z,0.94
2023-01-22T01:41:46.310Z,0.93
2023-01-22T01:44:17.500Z,0.92
2023-01-22T01:46:49.890Z,0.89
2023-01-22T01:49:26.639Z,0.82
2023-01-22T01:51:58.381Z,0.89
2023-01-22T01:54:28.111Z,0.97
2023-01-22T01:57:06.426Z,0.95
2023-01-22T01:59:35.802Z,0.97
2023-01-22T02:02:05.561Z,0.89
2023-01-22T02:04:34.347Z,1.01
2023-01-22T02:07:03.631Z,0.94
2023-01-22T02:09:33.822Z,0.97
2023-01-22T02:12:04.489Z,0.90
2023-01-22T02:14:35.494Z,0.94
2023-01-22T02:17:08.847Z,0.92
2023-01-22T02:19:37.229Z,0.95
2023-01-22T02:22:14.266Z,1.02
2023-01-22T02:24:42.839Z,1.03
2023-01-22T02:27:12.093Z,0.99
2023-01-22T02:29:40.942Z,1.03
2023-01-22T02:32:12.159Z,1.00
2023-01-22T02:34:40.511Z,0.93
2023-01-22T02:37:10.997Z,1.03
2023-01-22T02:39:39.396Z,0.95
2023-01-22T02:42:09.823Z,1.00
2023-01-22T02:44:39.563Z,0.93
2023-01-22T02:47:07.975Z,0.99
2023-01-22T02:49:36.380Z,0.99
2023-01-22T02:52:05.218Z,1.06
2023-01-22T02:54:35.124Z,1.06
2023-01-22T02:57:03.634Z,0.97
2023-01-22T02:59:32.157Z,1.00
2023-01-22T03:02:00.598Z,0.98
2023-01-22T03:04:29.168Z,0.96
2023-01-22T03:06:57.520Z,1.01
2023-01-22T03:09:29.983Z,0.93
2023-01-22T03:12:00.248Z,1.05
2023-01-22T03:14:50.334Z,0.91
2023-01-22T03:17:37.246Z,0.86
2023-01-22T03:20:24.925Z,0.86
2023-01-22T03:22:54.663Z,0.92
2023-01-22T03:25:23.001Z,0.90
2023-01-22T03:28:18.732Z,0.92
2023-01-22T03:30:52.974Z,0.99
2023-01-22T03:33:21.373Z,1.09
2023-01-22T03:35:51.089Z,0.93
2023-01-22T03:38:22.068Z,0.97
2023-01-22T03:40:50.492Z,1.01
2023-01-22T03:43:22.058Z,1.10
2023-01-22T03:45:50.664Z,0.95
2023-01-22T03:48:21.404Z,1.07
2023-01-22T03:50:49.993Z,1.06
2023-01-22T03:53:18.476Z,1.04
2023-01-22T03:55:47.204Z,1.07
2023-01-22T03:58:15.495Z,0.98
2023-01-22T04:00:45.617Z,1.04
2023-01-22T04:03:13.976Z,1.00
2023-01-22T04:05:42.734Z,1.02
2023-01-22T04:08:11.999Z,0.99
2023-01-22T04:10:44.589Z,1.06
2023-01-22T04:13:13.778Z,1.08
2023-01-22T04:15:47.324Z,1.07
2023-01-22T04:18:31.599Z,1.09
2023-01-22T04:21:09.412Z,1.07
2023-01-22T04:23:54.117Z,1.06
2023-01-22T04:26:22.529Z,1.01
2023-01-22T04:28:50.997Z,1.17
2023-01-22T04:31:24.129Z,1.01
2023-01-22T04:34:21.936Z,1.11
2023-01-22T04:37:02.685Z,1.04
2023-01-22T04:39:33.914Z,1.03
2023-01-22T04:42:02.350Z,1.11
2023-01-22T04:44:30.717Z,1.12
2023-01-22T04:47:00.521Z,1.11
2023-01-22T04:49:28.948Z,1.08
2023-01-22T04:51:58.211Z,1.03
2023-01-22T04:54:27.632Z,1.15
2023-01-22T04:56:56.666Z,1.09
2023-01-22T04:59:25.535Z,1.11
2023-01-22T05:01:53.913Z,1.08
2023-01-22T05:04:24.901Z,1.11
2023-01-22T05:06:53.365Z,1.15
2023-01-22T05:09:22.841Z,1.16
2023-01-22T05:11:54.308Z,1.15
2023-01-22T05:14:22.789Z,1.20
2023-01-22T05:16:51.258Z,1.22
2023-01-22T05:19:19.634Z,1.18
2023-01-22T05:21:49.450Z,1.20
2023-01-22T05:24:19.746Z,1.14
2023-01-22T05:26:48.212Z,1.17
2023-01-22T05:29:25.612Z,1.15
2023-01-22T05:32:19.959Z,1.20
2023-01-22T05:34:54.590Z,1.33
2023-01-22T05:37:24.406Z,1.30
2023-01-22T05:39:53.135Z,1.32
2023-01-22T05:42:21.897Z,1.35
2023-01-22T05:44:51.717Z,1.20
2023-01-22T05:47:23.204Z,1.24
2023-01-22T05:50:11.982Z,1.15
2023-01-22T05:52:41.735Z,1.28
2023-01-22T05:55:10.805Z,1.26
2023-01-22T05:57:43.879Z,1.27
2023-01-22T06:00:16.179Z,1.33
2023-01-22T06:02:57.503Z,1.25
2023-01-22T06:05:25.998Z,1.19
2023-01-22T06:08:03.542Z,1.23
2023-01-22T06:10:39.117Z,1.22
2023-01-22T06:13:07.514Z,1.20
2023-01-22T06:15:35.965Z,1.23
2023-01-22T06:18:17.646Z,1.28
2023-01-22T06:20:46.504Z,1.24
2023-01-22T06:23:16.662Z,1.31
2023-01-22T06:25:45.658Z,1.32
2023-01-22T06:28:18.841Z,1.31
2023-01-22T06:30:47.210Z,1.27
2023-01-22T06:33:16.041Z,1.28
2023-01-22T06:35:44.576Z,1.25
2023-01-22T06:38:13.021Z,1.24
2023-01-22T06:40:43.810Z,1.27
2023-01-22T06:43:12.212Z,1.27
2023-01-22T06:45:40.684Z,1.23
2023-01-22T06:48:10.979Z,1.34
2023-01-22T06:50:39.773Z,1.34
2023-01-22T06:53:08.458Z,1.26
2023-01-22T06:55:37.236Z,1.29
2023-01-22T06:58:07.136Z,1.36
2023-01-22T07:00:35.537Z,1.38
2023-01-22T07:03:08.106Z,1.33
2023-01-22T07:05:36.794Z,1.36
2023-01-22T07:08:05.555Z,1.42
2023-01-22T07:10:33.941Z,1.38
2023-01-22T07:13:04.308Z,1.39
2023-01-22T07:15:34.084Z,1.36
2023-01-22T07:18:02.472Z,1.30
2023-01-22T07:20:30.876Z,1.32
2023-01-22T07:23:00.388Z,1.46
2023-01-22T07:25:28.993Z,1.44
2023-01-22T07:28:00.885Z,1.45
2023-01-22T07:30:30.461Z,1.49
2023-01-22T07:33:01.233Z,1.42
2023-01-22T07:35:30.314Z,1.44
2023-01-22T07:38:01.724Z,1.43
2023-01-22T07:40:30.422Z,1.44
2023-01-22T07:43:00.067Z,1.51
2023-01-22T07:45:28.425Z,1.40
2023-01-22T07:48:00.310Z,1.39
2023-01-22T07:50:32.254Z,1.46
2023-01-22T07:53:01.300Z,1.38
2023-01-22T07:55:31.311Z,1.42
2023-01-22T07:58:01.420Z,1.94
2023-01-22T08:00:30.002Z,1.94
2023-01-22T08:02:58.481Z,2.22
2023-01-22T08:05:28.429Z,2.37
2023-01-22T08:07:56.896Z,2.43
2023-01-22T08:10:25.246Z,2.45
2023-01-22T08:12:53.558Z,2.33
2023-01-22T08:15:22.343Z,1.89
2023-01-22T08:17:52.327Z,1.83
2023-01-22T08:20:21.330Z,1.79
2023-01-22T08:22:51.168Z,1.82
2023-01-22T08:25:19.511Z,1.72
2023-01-22T08:27:47.886Z,1.62
2023-01-22T08:30:16.654Z,1.79
2023-01-22T08:32:46.585Z,1.72
2023-01-22T08:35:15.419Z,1.64
2023-01-22T08:37:44.957Z,1.77
2023-01-22T08:40:15.191Z,1.71
2023-01-22T08:42:43.589Z,1.84
2023-01-22T08:45:12.739Z,1.85
2023-01-22T08:47:41.110Z,1.97
2023-01-22T08:50:11.094Z,2.01
2023-01-22T08:52:39.477Z,1.97
2023-01-22T08:55:09.986Z,1.86
2023-01-22T08:57:39.766Z,2.02
2023-01-22T09:00:11.247Z,1.94
2023-01-22T09:02:39.671Z,1.90
2023-01-22T09:05:09.489Z,1.90
2023-01-22T09:07:37.927Z,1.97
2023-01-22T09:10:08.231Z,1.99
2023-01-22T09:12:36.681Z,1.97
2023-01-22T09:15:08.388Z,2.01
2023-01-22T09:17:36.811Z,1.93
2023-01-22T09:20:06.173Z,1.95
2023-01-22T09:22:34.530Z,2.06
2023-01-22T09:25:03.064Z,1.95
2023-01-22T09:27:31.535Z,2.12
2023-01-22T09:30:01.023Z,2.06
2023-01-22T09:32:30.814Z,2.09
2023-01-22T09:34:59.244Z,2.05
2023-01-22T09:37:27.818Z,2.10
2023-01-22T09:39:56.227Z,2.04
2023-01-22T09:42:31.418Z,2.07
2023-01-22T09:45:05.575Z,2.11
2023-01-22T09:47:42.127Z,2.18
2023-01-22T09:50:20.163Z,2.14
2023-01-22T09:52:51.439Z,2.14
2023-01-22T09:55:23.692Z,2.18
2023-01-22T09:57:55.485Z,2.18
2023-01-22T10:00:31.009Z,2.17
2023-01-22T10:03:05.415Z,2.21
2023-01-22T10:05:39.127Z,2.14
2023-01-22T10:08:13.716Z,2.32
2023-01-22T10:10:42.390Z,2.31
2023-01-22T10:13:19.070Z,2.46
2023-01-22T10:15:47.952Z,2.48
2023-01-22T10:18:33.531Z,2.37
2023-01-22T10:21:06.034Z,2.50
2023-01-22T10:23:35.762Z,2.30
2023-01-22T10:26:15.172Z,2.29
2023-01-22T10:28:46.621Z,2.25
2023-01-22T10:31:37.890Z,2.29
2023-01-22T10:34:15.047Z,2.37
2023-01-22T10:36:50.749Z,2.27
2023-01-22T10:39:20.491Z,2.35
2023-01-22T10:41:50.553Z,2.35
2023-01-22T10:44:25.226Z,2.30
2023-01-22T10:46:55.393Z,2.32
2023-01-22T10:49:27.568Z,2.40
2023-01-22T10:51:58.091Z,2.62
2023-01-22T10:54:32.357Z,2.57
2023-01-22T10:57:22.282Z,2.81
2023-01-22T10:59:51.977Z,2.58
2023-01-22T11:02:26.135Z,2.43
2023-01-22T11:04:56.534Z,2.54
2023-01-22T11:07:32.605Z,2.72
2023-01-22T11:10:10.354Z,2.70
2023-01-22T11:12:42.523Z,2.67
2023-01-22T11:15:23.600Z,2.62
2023-01-22T11:17:54.148Z,2.58
2023-01-22T11:20:28.333Z,2.76
2023-01-22T11:23:18.930Z,2.69
2023-01-22T11:25:58.345Z,2.64
2023-01-22T11:28:41.754Z,2.62
2023-01-22T11:31:37.206Z,2.72
2023-01-22T11:34:35.724Z,2.67
2023-01-22T11:37:13.915Z,2.69
2023-01-22T11:39:42.502Z,2.63
2023-01-22T11:42:27.607Z,2.57
2023-01-22T11:45:10.890Z,2.64
2023-01-22T11:48:03.379Z,2.56
2023-01-22T11:50:39.984Z,2.63
2023-01-22T11:53:46.576Z,2.65
2023-01-22T11:56:49.902Z,2.52
2023-01-22T11:59:32.988Z,2.57
2023-01-22T12:02:25.904Z,2.53
2023-01-22T12:05:13.115Z,2.63
2023-01-22T12:08:03.789Z,2.65
2023-01-22T12:10:55.706Z,2.63
2023-01-22T12:13:44.353Z,2.54
2023-01-22T12:16:22.557Z,2.72
2023-01-22T12:19:28.715Z,2.61
2023-01-22T12:22:04.589Z,2.63
2023-01-22T12:24:38.773Z,2.52
2023-01-22T12:27:14.915Z,2.55
2023-01-22T12:29:48.509Z,2.62
2023-01-22T12:32:19.215Z,2.58
2023-01-22T12:34:53.866Z,2.58
2023-01-22T12:37:27.354Z,2.65
2023-01-22T12:40:18.014Z,2.72
2023-01-22T12:42:57.945Z,2.62
2023-01-22T12:45:38.837Z,2.62
2023-01-22T12:48:23.611Z,2.71
2023-01-22T12:50:54.450Z,2.75
2023-01-22T12:57:55.819Z,2.90
2023-01-22T13:00:34.888Z,2.90
2023-01-22T13:03:06.142Z,2.90
2023-01-22T13:05:44.805Z,2.69
2023-01-22T13:08:41.832Z,2.78
2023-01-22T13:11:12.911Z,2.72
2023-01-22T13:13:48.427Z,2.78
2023-01-22T13:16:28.920Z,2.80
2023-01-22T13:19:00.685Z,2.83
2023-01-22T13:21:32.137Z,2.77
2023-01-22T13:24:04.204Z,2.78
2023-01-22T13:26:35.852Z,2.79
2023-01-22T13:29:20.492Z,2.73
2023-01-22T13:31:56.656Z,2.75
2023-01-22T13:34:25.538Z,2.77
2023-01-22T13:36:54.075Z,2.78
2023-01-22T13:39:27.002Z,2.76
2023-01-22T13:41:58.560Z,2.88
2023-01-22T13:44:32.633Z,2.75
2023-01-22T13:47:01.571Z,2.80
2023-01-22T13:49:33.557Z,2.77
2023-01-22T13:52:07.422Z,2.69
2023-01-22T13:54:38.641Z,2.64
2023-01-22T13:57:08.219Z,2.66
2023-01-22T13:59:38.400Z,2.55
2023-01-22T14:02:22.644Z,2.70
2023-01-22T14:04:51.722Z,2.59
2023-01-22T14:07:28.841Z,2.62
2023-01-22T14:10:00.289Z,2.65
2023-01-22T14:12:30.353Z,2.72
2023-01-22T14:15:00.842Z,2.58
2023-01-22T14:17:34.102Z,2.68
2023-01-22T14:20:04.418Z,2.63
2023-01-22T14:22:32.900Z,2.66
2023-01-22T14:25:01.484Z,2.68
2023-01-22T14:27:41.367Z,2.69
2023-01-22T14:30:15.159Z,2.71
2023-01-22T14:32:44.850Z,2.72
2023-01-22T14:35:18.870Z,2.74
2023-01-22T14:37:48.828Z,2.61
2023-01-22T14:40:19.177Z,2.63
2023-01-22T14:42:48.150Z,2.73
2023-01-22T14:45:20.080Z,2.76
2023-01-22T14:47:52.377Z,2.57
2023-01-22T14:50:21.796Z,2.75
2023-01-22T14:52:52.099Z,2.73
2023-01-22T14:55:21.019Z,2.70
2023-01-22T14:57:49.580Z,2.75
2023-01-22T15:00:21.147Z,2.77
2023-01-22T15:02:49.896Z,2.82
2023-01-22T15:05:18.459Z,2.86
2023-01-22T15:07:47.052Z,2.80
2023-01-22T15:10:15.934Z,2.72
2023-01-22T15:12:48.724Z,2.68
2023-01-22T15:15:23.205Z,2.77
2023-01-22T15:17:51.782Z,2.71
2023-01-22T15:20:22.064Z,2.84
2023-01-22T15:22:50.924Z,2.79
2023-01-22T15:25:19.695Z,2.74
2023-01-22T15:27:48.289Z,2.65
2023-01-22T15:30:19.147Z,2.73
2023-01-22T15:32:47.600Z,2.75
2023-01-22T15:35:16.335Z,2.81
2023-01-22T15:37:44.903Z,2.65
2023-01-22T15:40:15.554Z,2.70
2023-01-22T15:42:44.013Z,2.62
2023-01-22T15:45:13.235Z,2.61
2023-01-22T15:47:43.032Z,2.63
2023-01-22T15:50:20.197Z,2.58
2023-01-22T15:52:48.937Z,2.38
2023-01-22T15:55:17.508Z,2.41
2023-01-22T15:57:45.832Z,2.53
2023-01-22T16:00:16.756Z,2.45
2023-01-22T16:02:47.020Z,2.45
2023-01-22T16:05:15.750Z,2.46
2023-01-22T16:07:44.088Z,2.60
2023-01-22T16:10:13.228Z,2.57
2023-01-22T16:12:42.061Z,2.46
2023-01-22T16:15:12.299Z,2.47
2023-01-22T16:17:40.821Z,2.48
2023-01-22T16:20:12.559Z,2.42
2023-01-22T16:22:41.137Z,2.39
2023-01-22T16:25:10.924Z,2.39
2023-01-22T16:27:39.560Z,2.26
2023-01-22T16:30:10.280Z,2.30
2023-01-22T16:32:42.553Z,2.33
2023-01-22T16:35:12.646Z,2.43
2023-01-22T16:37:41.090Z,2.41
2023-01-22T16:40:11.508Z,2.47
2023-01-22T16:42:39.867Z,2.50
2023-01-22T16:45:09.329Z,2.34
2023-01-22T16:47:37.668Z,2.38
2023-01-22T16:50:06.943Z,2.36
2023-01-22T16:52:36.681Z,2.34
2023-01-22T16:55:07.934Z,2.28
2023-01-22T16:57:36.323Z,2.32
2023-01-22T17:00:06.032Z,2.37
2023-01-22T17:02:34.469Z,2.35
2023-01-22T17:05:03.031Z,2.19
2023-01-22T17:07:34.287Z,2.27
2023-01-22T17:10:04.635Z,2.27
2023-01-22T17:12:33.673Z,2.35
2023-01-22T17:15:02.092Z,2.26
2023-01-22T17:17:30.456Z,2.23
2023-01-22T17:19:58.920Z,2.24
2023-01-22T17:22:27.468Z,2.26
2023-01-22T17:24:56.030Z,2.33
2023-01-22T17:27:25.928Z,2.32
2023-01-22T17:29:54.383Z,2.29
2023-01-22T17:32:22.914Z,2.32
2023-01-22T17:34:51.382Z,2.21
2023-01-22T17:37:19.747Z,2.18
2023-01-22T17:39:50.720Z,2.20
2023-01-22T17:42:20.974Z,2.11
2023-01-22T17:44:51.006Z,2.16
2023-01-22T17:47:19.388Z,2.19
2023-01-22T17:49:49.096Z,2.18
2023-01-22T17:52:17.952Z,2.30
2023-01-22T17:54:46.326Z,2.17
2023-01-22T17:57:14.657Z,2.25
2023-01-22T17:59:43.207Z,2.16
2023-01-22T18:02:13.100Z,2.06
2023-01-22T18:04:41.455Z,2.19
2023-01-22T18:07:09.773Z,2.14
2023-01-22T18:09:38.127Z,1.98
2023-01-22T18:12:07.046Z,2.06
2023-01-22T18:14:35.428Z,2.18
2023-01-22T18:17:03.940Z,2.11
2023-01-22T18:19:33.672Z,2.05
2023-01-22T18:22:01.982Z,1.99
2023-01-22T18:24:31.624Z,2.04
2023-01-22T18:27:00.048Z,2.02
2023-01-22T18:29:28.577Z,2.09
2023-01-22T18:31:57.120Z,2.01
2023-01-22T18:34:25.591Z,1.97
2023-01-22T18:36:56.123Z,2.11
2023-01-22T18:39:25.807Z,2.01
2023-01-22T18:41:54.323Z,2.06
2023-01-22T18:44:27.534Z,2.09
2023-01-22T18:46:58.731Z,2.02
2023-01-22T18:49:28.206Z,1.98
2023-01-22T18:52:00.925Z,1.95
2023-01-22T18:54:29.944Z,1.86
2023-01-22T18:56:58.329Z,1.87
2023-01-22T18:59:29.930Z,1.89
2023-01-22T19:01:58.554Z,1.87
2023-01-22T19:04:28.736Z,1.88
2023-01-22T19:06:58.711Z,1.97
2023-01-22T19:09:27.980Z,1.99
2023-01-22T19:11:56.513Z,1.92
2023-01-22T19:14:25.212Z,1.88
2023-01-22T19:16:54.933Z,2.03
2023-01-22T19:19:24.088Z,1.94
2023-01-22T19:21:55.312Z,1.99
2023-01-22T19:24:28.379Z,2.00
2023-01-22T19:26:58.046Z,1.97
2023-01-22T19:29:28.082Z,1.91
2023-01-22T19:31:57.529Z,1.96
2023-01-22T19:34:29.699Z,1.97
2023-01-22T19:37:01.301Z,1.95
2023-01-22T19:39:31.581Z,1.83
2023-01-22T19:42:02.205Z,1.89
2023-01-22T19:44:31.381Z,2.05
2023-01-22T19:47:00.562Z,2.03
2023-01-22T19:49:29.131Z,1.98
2023-01-22T19:51:57.656Z,1.96
2023-01-22T19:54:26.502Z,1.92
2023-01-22T19:56:56.477Z,1.92
2023-01-22T19:59:26.195Z,1.89
2023-01-22T20:01:54.753Z,1.94
2023-01-22T20:04:26.727Z,1.90
2023-01-22T20:06:58.769Z,1.92
2023-01-22T20:09:27.678Z,1.95
2023-01-22T20:11:58.315Z,1.93
2023-01-22T20:14:32.384Z,1.89
2023-01-22T20:17:03.103Z,1.86
2023-01-22T20:19:31.882Z,1.93
2023-01-22T20:22:02.885Z,1.92
2023-01-22T20:24:31.232Z,1.96
2023-01-22T20:27:01.332Z,1.96
2023-01-22T20:29:29.901Z,1.80
2023-01-22T20:31:59.336Z,1.88
2023-01-22T20:34:28.022Z,1.89
2023-01-22T20:36:56.479Z,1.96
2023-01-22T20:39:24.961Z,1.97
2023-01-22T20:41:54.776Z,1.97
2023-01-22T20:44:24.740Z,1.93
2023-01-22T20:46:53.145Z,2.05
2023-01-22T20:49:21.535Z,1.91
2023-01-22T20:51:49.921Z,1.91
2023-01-22T20:54:19.185Z,1.98
2023-01-22T20:56:47.702Z,1.92
2023-01-22T20:59:18.508Z,1.98
2023-01-22T21:01:48.875Z,1.99
2023-01-22T21:04:19.380Z,2.03
2023-01-22T21:06:48.635Z,2.14
2023-01-22T21:09:17.151Z,1.96
2023-01-22T21:11:45.798Z,1.97
2023-01-22T21:14:17.888Z,1.98
2023-01-22T21:16:49.064Z,1.84
2023-01-22T21:19:22.662Z,1.89
2023-01-22T21:21:51.645Z,1.95
2023-01-22T21:24:20.732Z,1.93
2023-01-22T21:26:49.146Z,2.03
2023-01-22T21:29:19.574Z,1.92
2023-01-22T21:31:51.807Z,1.98
2023-01-22T21:34:22.152Z,1.94
2023-01-22T21:36:53.708Z,1.96
2023-01-22T21:39:24.999Z,2.07
2023-01-22T21:42:14.259Z,1.97
2023-01-22T21:45:00.059Z,1.99
2023-01-22T21:47:30.787Z,2.00
2023-01-22T21:50:01.901Z,1.99
2023-01-22T21:52:30.307Z,1.93
2023-01-22T21:54:59.268Z,1.90
2023-01-22T21:57:27.859Z,1.87
2023-01-22T21:59:56.310Z,1.97
2023-01-22T22:02:25.186Z,1.93
2023-01-22T22:04:55.182Z,1.92
2023-01-22T22:07:23.666Z,1.90
2023-01-22T22:09:52.173Z,1.98
2023-01-22T22:12:20.579Z,1.90
2023-01-22T22:14:48.974Z,1.92
2023-01-22T22:17:17.400Z,1.94
2023-01-22T22:19:45.826Z,1.93
2023-01-22T22:22:16.730Z,1.85
2023-01-22T22:24:45.234Z,1.90
2023-01-22T22:27:13.637Z,1.93
2023-01-22T22:29:42.084Z,1.92
2023-01-22T22:32:10.448Z,1.93
2023-01-22T22:34:38.888Z,1.94
2023-01-22T22:37:07.308Z,1.98
2023-01-22T22:39:37.079Z,1.96
2023-01-22T22:42:05.943Z,1.91
2023-01-22T22:44:36.480Z,1.94
2023-01-22T22:47:05.750Z,1.85
2023-01-22T22:49:34.118Z,1.86
2023-01-22T22:52:02.428Z,1.88
2023-01-22T22:54:30.814Z,1.78
2023-01-22T22:57:00.508Z,1.92
2023-01-22T22:59:28.815Z,1.85
2023-01-22T23:01:57.425Z,1.91
2023-01-22T23:04:26.036Z,1.83
2023-01-22T23:06:54.528Z,1.78
2023-01-22T23:09:22.866Z,1.74
2023-01-22T23:11:52.122Z,1.83
2023-01-22T23:14:21.920Z,1.79
2023-01-22T23:16:50.865Z,1.75
2023-01-22T23:19:23.703Z,1.74
2023-01-22T23:21:54.101Z,1.76
2023-01-22T23:24:22.583Z,1.83
2023-01-22T23:26:51.427Z,1.68
2023-01-22T23:29:24.365Z,1.71
2023-01-22T23:31:53.212Z,1.64
2023-01-22T23:34:23.355Z,1.66
2023-01-22T23:36:52.531Z,1.71
2023-01-22T23:39:22.579Z,1.65
2023-01-22T23:41:51.286Z,1.61
2023-01-22T23:44:19.807Z,1.70
2023-01-22T23:46:49.565Z,1.77
2023-01-22T23:49:17.967Z,1.75
2023-01-22T23:51:46.334Z,1.80
2023-01-22T23:54:14.810Z,1.79
2023-01-22T23:56:43.247Z,1.74
2023-01-22T23:59:12.253Z,1.77
